createdAt,value
2022-09-20T00:00:16.735Z,3.60
2022-09-20T00:03:18.696Z,4.28
2022-09-20T00:06:22.746Z,3.78
2022-09-20T00:09:24.345Z,4.65
2022-09-20T00:12:26.828Z,3.78
2022-09-20T00:15:29.129Z,4.30
2022-09-20T00:18:30.756Z,4.45
2022-09-20T00:21:34.969Z,4.20
2022-09-20T00:24:37.150Z,4.47
2022-09-20T00:27:38.814Z,4.30
2022-09-20T00:30:40.457Z,4.68
2022-09-20T00:34:01.043Z,4.55
2022-09-20T00:37:03.608Z,4.97
2022-09-20T00:40:14.908Z,4.78
2022-09-20T00:43:18.211Z,4.68
2022-09-20T00:46:19.846Z,4.82
2022-09-20T00:49:26.499Z,5.22
2022-09-20T00:52:30.319Z,5.95
2022-09-20T00:55:34.938Z,5.10
2022-09-20T00:58:41.311Z,5.47
2022-09-20T01:01:45.180Z,5.07
2022-09-20T01:04:48.553Z,5.57
2022-09-20T01:10:52.932Z,5.15
2022-09-20T01:13:54.510Z,5.57
2022-09-20T01:16:59.467Z,4.53
2022-09-20T01:20:16.188Z,4.72
2022-09-20T01:23:38.623Z,4.82
2022-09-20T01:27:07.694Z,5.28
2022-09-20T01:30:14.370Z,5.03
2022-09-20T01:33:37.265Z,4.80
2022-09-20T01:36:45.479Z,4.30
2022-09-20T01:40:20.754Z,4.53
2022-09-20T01:43:58.778Z,4.45
2022-09-20T01:47:16.284Z,4.35
2022-09-20T01:50:36.602Z,4.25
2022-09-20T01:53:56.106Z,5.45
2022-09-20T01:57:27.442Z,4.13
2022-09-20T02:00:42.120Z,4.00
2022-09-20T02:04:05.681Z,4.07
2022-09-20T02:07:25.515Z,4.03
2022-09-20T02:11:05.953Z,3.90
2022-09-20T02:14:38.293Z,3.75
2022-09-20T02:18:00.691Z,4.28
2022-09-20T02:21:18.302Z,3.85
2022-09-20T02:24:41.108Z,4.03
2022-09-20T02:28:10.260Z,4.32
2022-09-20T02:31:56.721Z,3.90
2022-09-20T02:35:05.515Z,4.07
2022-09-20T02:38:17.524Z,4.53
2022-09-20T02:41:39.352Z,3.65
2022-09-20T02:44:59.103Z,4.30
2022-09-20T02:48:04.927Z,3.95
2022-09-20T02:51:22.134Z,3.58
2022-09-20T02:55:01.027Z,3.67
2022-09-20T02:58:16.296Z,4.25
2022-09-20T03:01:25.523Z,3.72
2022-09-20T03:05:09.638Z,3.28
2022-09-20T03:08:25.679Z,4.57
2022-09-20T03:11:44.185Z,4.80
2022-09-20T03:14:57.547Z,3.78
2022-09-20T03:18:16.173Z,4.43
2022-09-20T03:22:02.716Z,2.67
2022-09-20T03:25:26.076Z,3.45
2022-09-20T03:29:01.555Z,3.60
2022-09-20T03:32:13.538Z,3.20
2022-09-20T03:36:02.661Z,3.50
2022-09-20T03:39:22.837Z,4.15
2022-09-20T03:42:29.730Z,3.80
2022-09-20T03:45:55.965Z,4.20
2022-09-20T03:49:32.520Z,4.03
2022-09-20T03:52:55.040Z,4.25
2022-09-20T03:56:24.167Z,3.63
2022-09-20T03:59:44.130Z,3.58
2022-09-20T04:03:13.619Z,3.33
2022-09-20T04:06:28.554Z,3.05
2022-09-20T04:09:42.032Z,3.90
2022-09-20T04:16:51.788Z,3.35
2022-09-20T04:20:11.935Z,3.47
2022-09-20T04:23:18.107Z,3.58
2022-09-20T04:26:27.687Z,3.70
2022-09-20T04:29:38.062Z,3.63
2022-09-20T04:32:58.440Z,4.10
2022-09-20T04:36:30.401Z,3.92
2022-09-20T04:39:47.502Z,3.55
2022-09-20T04:43:10.523Z,4.10
2022-09-20T04:46:37.393Z,4.30
2022-09-20T04:50:05.490Z,7.22
2022-09-20T04:53:28.371Z,6.65
2022-09-20T04:56:44.914Z,5.10
2022-09-20T05:00:04.614Z,4.25
2022-09-20T05:03:24.719Z,5.20
2022-09-20T05:06:55.410Z,4.78
2022-09-20T05:10:34.315Z,3.90
2022-09-20T05:14:13.819Z,3.85
2022-09-20T05:17:36.088Z,4.70
2022-09-20T05:21:08.309Z,4.25
2022-09-20T05:24:18.697Z,4.35
2022-09-20T05:27:38.090Z,4.65
2022-09-20T05:30:43.801Z,4.30
2022-09-20T05:34:09.977Z,4.65
2022-09-20T05:37:56.339Z,4.75
2022-09-20T05:41:38.472Z,5.32
2022-09-20T05:45:00.301Z,4.35
2022-09-20T05:48:20.593Z,4.20
2022-09-20T05:51:45.772Z,4.65
2022-09-20T05:55:24.084Z,4.95
2022-09-20T05:58:37.458Z,4.82
2022-09-20T06:01:43.957Z,5.30
2022-09-20T06:04:52.071Z,5.25
2022-09-20T06:08:15.511Z,5.70
2022-09-20T06:12:14.457Z,5.05
2022-09-20T06:15:47.037Z,6.40
2022-09-20T06:19:10.858Z,5.72
2022-09-20T06:25:47.802Z,5.43
2022-09-20T06:29:06.699Z,5.28
2022-09-20T06:32:08.344Z,5.80
2022-09-20T06:35:10.263Z,5.50
2022-09-20T06:38:56.843Z,6.00
2022-09-20T06:42:00.357Z,6.47
2022-09-20T06:45:01.961Z,5.68
2022-09-20T06:48:03.707Z,5.65
2022-09-20T06:51:06.950Z,6.65
2022-09-20T06:54:17.168Z,4.57
2022-09-20T06:57:23.820Z,4.75
2022-09-20T07:00:25.502Z,5.30
2022-09-20T07:03:27.078Z,4.80
2022-09-20T07:06:29.209Z,5.60
2022-09-20T07:09:31.532Z,6.47
2022-09-20T07:12:35.099Z,5.28
2022-09-20T07:15:37.976Z,5.78
2022-09-20T07:18:41.610Z,6.03
2022-09-20T07:21:43.202Z,5.93
2022-09-20T07:24:44.958Z,5.28
2022-09-20T07:27:50.269Z,4.18
2022-09-20T07:30:51.967Z,5.28
2022-09-20T07:33:53.679Z,4.93
2022-09-20T07:36:57.317Z,3.90
2022-09-20T07:39:59.031Z,4.47
2022-09-20T07:43:01.706Z,3.72
2022-09-20T07:46:03.847Z,3.42
2022-09-20T07:49:06.531Z,3.10
2022-09-20T07:52:10.331Z,3.35
2022-09-20T07:55:12.141Z,3.30
2022-09-20T07:58:13.701Z,3.03
2022-09-20T08:01:15.402Z,2.97
2022-09-20T08:04:17.090Z,2.58
2022-09-20T08:07:18.688Z,3.10
2022-09-20T08:10:20.378Z,2.50
2022-09-20T08:16:48.752Z,2.20
2022-09-20T08:19:50.691Z,2.58
2022-09-20T08:23:19.537Z,3.00
2022-09-20T08:26:21.390Z,1.98
2022-09-20T08:29:23.010Z,2.35
2022-09-20T08:32:24.617Z,2.58
2022-09-20T08:35:26.931Z,1.27
2022-09-20T08:42:13.470Z,1.85
2022-09-20T08:45:33.837Z,1.50
2022-09-20T08:48:36.301Z,1.40
2022-09-20T08:51:41.844Z,1.95
2022-09-20T08:54:43.665Z,1.70
2022-09-20T08:57:50.254Z,1.20
2022-09-20T09:00:52.352Z,1.60
2022-09-20T09:04:02.456Z,1.07
2022-09-20T09:07:04.545Z,1.15
2022-09-20T09:10:12.438Z,1.10
2022-09-20T09:13:29.177Z,1.88
2022-09-20T09:16:35.267Z,1.58
2022-09-20T09:19:45.137Z,1.35
2022-09-20T09:22:47.707Z,1.70
2022-09-20T09:25:49.480Z,1.73
2022-09-20T09:29:20.869Z,1.42
2022-09-20T09:32:31.239Z,1.00
2022-09-20T09:35:36.025Z,1.27
2022-09-20T09:38:42.080Z,1.30
2022-09-20T09:41:44.504Z,1.75
2022-09-20T09:44:50.256Z,1.35
2022-09-20T09:47:52.232Z,1.25
2022-09-20T09:51:15.344Z,1.80
2022-09-20T09:54:19.739Z,2.28
2022-09-20T09:58:06.038Z,2.03
2022-09-20T10:01:20.544Z,1.85
2022-09-20T10:04:29.006Z,1.75
2022-09-20T10:08:00.650Z,1.73
2022-09-20T10:11:20.651Z,1.73
2022-09-20T10:14:54.290Z,1.90
2022-09-20T10:18:20.518Z,1.88
2022-09-20T10:21:48.902Z,1.90
2022-09-20T10:25:19.235Z,1.83
2022-09-20T10:28:48.411Z,1.80
2022-09-20T10:32:26.438Z,2.05
2022-09-20T10:35:52.066Z,1.90
2022-09-20T10:39:12.928Z,1.60
2022-09-20T10:42:49.553Z,1.88
2022-09-20T10:46:33.795Z,3.47
2022-09-20T10:49:50.920Z,1.63
2022-09-20T10:53:29.787Z,1.60
2022-09-20T10:56:35.244Z,1.95
2022-09-20T10:59:51.461Z,1.40
2022-09-20T11:03:18.993Z,1.58
2022-09-20T11:06:32.358Z,1.60
2022-09-20T11:09:39.779Z,2.65
2022-09-20T11:12:56.993Z,2.75
2022-09-20T11:16:06.714Z,2.80
2022-09-20T11:19:29.270Z,1.73
2022-09-20T11:22:42.816Z,2.27
2022-09-20T11:25:52.739Z,1.05
2022-09-20T11:29:23.607Z,1.60
2022-09-20T11:32:37.147Z,1.40
2022-09-20T11:35:56.085Z,1.50
2022-09-20T11:39:05.190Z,1.45
2022-09-20T11:42:12.696Z,1.30
2022-09-20T11:45:14.673Z,1.65
2022-09-20T11:48:27.151Z,1.90
2022-09-20T11:52:07.218Z,1.43
2022-09-20T11:55:28.472Z,1.30
2022-09-20T11:58:31.679Z,1.50
2022-09-20T12:01:40.222Z,1.60
2022-09-20T12:04:45.594Z,1.40
2022-09-20T12:07:57.910Z,1.50
2022-09-20T12:11:09.782Z,1.60
2022-09-20T12:14:25.071Z,1.20
2022-09-20T12:18:09.038Z,1.30
2022-09-20T12:21:16.604Z,1.10
2022-09-20T12:24:21.197Z,0.90
2022-09-20T12:27:29.427Z,1.00
2022-09-20T12:30:33.719Z,0.77
2022-09-20T12:33:59.844Z,1.20
2022-09-20T12:37:01.716Z,1.20
2022-09-20T12:40:06.875Z,1.05
2022-09-20T12:43:24.784Z,1.08
2022-09-20T12:46:38.425Z,0.80
2022-09-20T12:50:01.983Z,0.90
2022-09-20T12:53:12.245Z,1.00
2022-09-20T12:56:21.899Z,1.10
2022-09-20T12:59:31.128Z,0.98
2022-09-20T13:03:10.871Z,0.80
2022-09-20T13:06:16.601Z,0.93
2022-09-20T13:09:20.816Z,1.08
2022-09-20T13:12:23.016Z,0.90
2022-09-20T13:15:25.124Z,1.07
2022-09-20T13:18:30.504Z,0.80
2022-09-20T13:21:39.399Z,1.10
2022-09-20T13:24:55.104Z,0.80
2022-09-20T13:28:20.461Z,1.00
2022-09-20T13:31:35.974Z,1.00
2022-09-20T13:34:38.003Z,0.95
2022-09-20T13:37:43.091Z,0.93
2022-09-20T13:40:49.932Z,0.70
2022-09-20T13:43:52.252Z,1.02
2022-09-20T13:46:55.758Z,0.60
2022-09-20T13:50:02.328Z,0.60
2022-09-20T13:53:33.256Z,0.60
2022-09-20T13:56:38.101Z,0.70
2022-09-20T13:59:45.457Z,0.47
2022-09-20T14:02:49.409Z,0.50
2022-09-20T14:05:56.139Z,0.60
2022-09-20T14:09:00.124Z,0.50
2022-09-20T14:12:04.894Z,0.57
2022-09-20T14:15:09.797Z,0.50
2022-09-20T14:18:16.645Z,0.50
2022-09-20T14:21:24.098Z,0.52
2022-09-20T14:24:31.941Z,1.35
2022-09-20T14:27:33.851Z,0.40
2022-09-20T14:30:37.068Z,0.30
2022-09-20T14:33:42.991Z,0.30
2022-09-20T14:36:45.079Z,0.30
2022-09-20T14:39:54.109Z,0.30
2022-09-20T14:43:03.414Z,0.40
2022-09-20T14:46:11.835Z,0.50
2022-09-20T14:49:21.167Z,1.13
2022-09-20T14:52:26.733Z,0.50
2022-09-20T14:55:28.663Z,0.60
2022-09-20T14:58:31.231Z,0.80
2022-09-20T15:01:34.554Z,0.85
2022-09-20T15:04:37.926Z,0.73
2022-09-20T15:07:39.583Z,0.70
2022-09-20T15:10:41.487Z,2.00
2022-09-20T15:13:43.127Z,0.60
2022-09-20T15:16:44.770Z,0.80
2022-09-20T15:19:47.790Z,1.35
2022-09-20T15:25:53.261Z,0.60
2022-09-20T15:28:54.851Z,0.73
2022-09-20T15:31:56.861Z,1.00
2022-09-20T15:34:58.564Z,0.88
2022-09-20T15:38:00.277Z,1.38
2022-09-20T15:41:04.197Z,0.95
2022-09-20T15:44:07.095Z,0.95
2022-09-20T15:47:11.805Z,0.88
2022-09-20T15:50:16.180Z,0.70
2022-09-20T15:53:18.447Z,1.63
2022-09-20T15:56:41.276Z,0.70
2022-09-20T15:59:42.894Z,0.60
2022-09-20T16:02:48.944Z,6.22
2022-09-20T16:06:07.376Z,3.00
2022-09-20T16:09:09.315Z,4.40
2022-09-20T16:12:10.935Z,5.28
2022-09-20T16:15:12.533Z,2.97
2022-09-20T16:18:32.829Z,2.70
2022-09-20T16:21:36.621Z,1.10
2022-09-20T16:24:38.298Z,0.90
2022-09-20T16:27:40.311Z,0.73
2022-09-20T16:30:41.891Z,0.90
2022-09-20T16:33:44.170Z,0.73
2022-09-20T16:36:46.582Z,1.47
2022-09-20T16:39:48.354Z,6.03
2022-09-20T16:42:52.417Z,2.97
2022-09-20T16:46:01.146Z,2.15
2022-09-20T16:49:06.346Z,1.95
2022-09-20T16:52:09.335Z,2.53
2022-09-20T16:55:13.078Z,4.28
2022-09-20T16:58:15.354Z,5.07
2022-09-20T17:01:17.253Z,9.70
2022-09-20T17:04:21.011Z,7.88
2022-09-20T17:07:23.567Z,7.35
2022-09-20T17:10:26.606Z,6.50
2022-09-20T17:13:34.315Z,5.18
2022-09-20T17:16:38.682Z,7.85
2022-09-20T17:19:40.334Z,3.55
2022-09-20T17:22:42.418Z,6.57
2022-09-20T17:25:45.529Z,4.32
2022-09-20T17:28:51.460Z,7.35
2022-09-20T17:31:56.103Z,5.88
2022-09-20T17:35:00.312Z,1.92
2022-09-20T17:41:15.334Z,8.70
2022-09-20T17:44:17.228Z,6.05
2022-09-20T17:47:19.936Z,2.33
2022-09-20T17:50:21.751Z,9.10
2022-09-20T17:53:23.448Z,2.60
2022-09-20T17:56:29.492Z,2.42
2022-09-20T17:59:32.405Z,3.25
2022-09-20T18:02:34.063Z,8.80
2022-09-20T18:05:35.786Z,4.22
2022-09-20T18:08:37.761Z,3.30
2022-09-20T18:11:41.997Z,3.17
2022-09-20T18:14:43.635Z,4.47
2022-09-20T18:17:59.959Z,3.50
2022-09-20T18:21:17.106Z,3.70
2022-09-20T18:27:20.416Z,4.03
2022-09-20T18:30:22.272Z,3.70
2022-09-20T18:33:24.929Z,4.05
2022-09-20T18:36:28.508Z,4.82
2022-09-20T18:39:32.628Z,5.10
2022-09-20T18:42:34.495Z,9.07
2022-09-20T18:45:36.275Z,6.90
2022-09-20T18:48:39.804Z,6.50
2022-09-20T18:51:42.262Z,8.48
2022-09-20T18:54:43.990Z,9.27
2022-09-20T18:57:45.803Z,9.50
2022-09-20T19:00:54.888Z,9.02
2022-09-20T19:04:26.015Z,7.50
2022-09-20T19:07:27.600Z,6.63
2022-09-20T19:10:45.980Z,6.28
2022-09-20T19:13:57.932Z,4.25
2022-09-20T19:17:02.255Z,4.63
2022-09-20T19:20:16.401Z,5.10
2022-09-20T19:23:36.658Z,5.55
2022-09-20T19:26:38.781Z,5.88
2022-09-20T19:29:41.099Z,7.25
2022-09-20T19:32:45.565Z,7.30
2022-09-20T19:35:51.498Z,6.70
2022-09-20T19:38:59.952Z,6.38
2022-09-20T19:42:20.027Z,5.15
2022-09-20T19:45:47.373Z,6.63
2022-09-20T19:49:07.411Z,6.80
2022-09-20T19:52:12.981Z,7.10
2022-09-20T19:55:16.279Z,5.05
2022-09-20T19:58:20.926Z,5.50
2022-09-20T20:01:24.877Z,5.70
2022-09-20T20:04:28.388Z,6.35
2022-09-20T20:07:33.583Z,5.75
2022-09-20T20:11:00.363Z,5.50
2022-09-20T20:14:17.252Z,4.25
2022-09-20T20:17:40.247Z,5.25
2022-09-20T20:20:50.411Z,4.30
2022-09-20T20:24:19.939Z,4.35
2022-09-20T20:27:21.511Z,4.57
2022-09-20T20:30:23.101Z,5.03
2022-09-20T20:33:24.841Z,5.30
2022-09-20T20:36:26.461Z,5.50
2022-09-20T20:39:31.976Z,4.97
2022-09-20T20:42:33.845Z,3.78
2022-09-20T20:45:35.822Z,2.42
2022-09-20T20:48:37.965Z,3.03
2022-09-20T20:51:39.566Z,2.55
2022-09-20T20:54:41.229Z,2.78
2022-09-20T20:57:45.129Z,6.75
2022-09-20T21:00:46.713Z,7.80
2022-09-20T21:03:52.799Z,19.85
2022-09-20T21:06:54.999Z,22.02
2022-09-20T21:09:56.608Z,5.72
2022-09-20T21:12:58.271Z,5.40
2022-09-20T21:16:08.957Z,4.97
2022-09-20T21:19:14.785Z,4.60
2022-09-20T21:22:16.493Z,4.15
2022-09-20T21:25:18.105Z,3.70
2022-09-20T21:28:20.332Z,3.88
2022-09-20T21:31:23.165Z,4.07
2022-09-20T21:34:25.315Z,4.90
2022-09-20T21:37:26.917Z,5.00
2022-09-20T21:40:28.503Z,4.18
2022-09-20T21:43:30.277Z,4.43
2022-09-20T21:46:34.529Z,4.40
2022-09-20T21:49:36.266Z,4.40
2022-09-20T21:52:37.954Z,3.97
2022-09-20T21:55:39.541Z,3.47
2022-09-20T21:58:41.203Z,4.22
2022-09-20T22:01:42.833Z,3.95
2022-09-20T22:04:44.443Z,4.30
2022-09-20T22:07:46.102Z,3.75
2022-09-20T22:10:57.824Z,4.40
2022-09-20T22:13:59.410Z,6.28
2022-09-20T22:17:01.045Z,4.18
2022-09-20T22:20:03.576Z,4.13
2022-09-20T22:23:05.281Z,4.90
2022-09-20T22:26:11.929Z,5.00
2022-09-20T22:29:14.284Z,4.85
2022-09-20T22:32:15.888Z,5.63
2022-09-20T22:35:17.523Z,6.65
2022-09-20T22:38:19.111Z,8.25
2022-09-20T22:41:21.542Z,5.60
2022-09-20T22:44:23.110Z,6.40
2022-09-20T22:47:24.917Z,5.68
2022-09-20T22:50:26.474Z,5.03
2022-09-20T22:53:29.915Z,4.82
2022-09-20T22:56:32.407Z,4.90
2022-09-20T22:59:33.990Z,5.40
2022-09-20T23:02:35.616Z,5.57
2022-09-20T23:05:39.892Z,5.60
2022-09-20T23:08:41.514Z,5.40
2022-09-20T23:11:43.683Z,5.47
2022-09-20T23:14:45.300Z,5.65
2022-09-20T23:17:47.104Z,5.30
2022-09-20T23:20:48.737Z,5.38
2022-09-20T23:24:01.567Z,4.18
2022-09-20T23:27:03.194Z,4.63
2022-09-20T23:30:05.268Z,4.65
2022-09-20T23:33:06.866Z,4.70
2022-09-20T23:36:10.421Z,3.92
2022-09-20T23:39:12.747Z,4.53
2022-09-20T23:42:14.343Z,4.20
2022-09-20T23:45:15.910Z,5.38
2022-09-20T23:48:19.999Z,4.78
2022-09-20T23:51:24.758Z,4.50
2022-09-20T23:54:26.322Z,4.70
2022-09-20T23:57:28.651Z,4.82
